Airfield :







YOU CAN JOIN US ON...

 
LOGIN :

Register | Disclaimer

   EN    FR    IT 

 









Legend :    VFR   Marginal VFR   IFR   Intensive IFR   Very Intensive IFR
Visi :
Ceiling :
>= 8 km
>= 3000ft
5 to 8 km
1000 to 3000 ft
1500m to 5 km
500 to 1000 ft
800 to 1500m
200 to 500 ft
< 800m
< 200 ft
Symbols :   Thunderstorms  Fog  Heavy snow  Heavy precipitations  Wind > 20 kt






- Airport Elevation : 654 ft


KAQW - Harriman and West

CURRENT METAR :
  • 170452Z AUTO 00000KT 10SM CLR M10/M13 A3047 RMK AO2 SLP331 T11001128 400061106 TSNO

EXPIRED METARs :
  • 170352Z AUTO 00000KT 10SM CLR M10/M13 A3049 RMK AO2 SLP339 T11001133 TSNO
  • 170252Z AUTO 00000KT 10SM CLR M09/M13 A3051 RMK AO2 SLP344 T10941133 53000 TSNO

TAF N/A



MET'MAP, your aeronautical weather chart ! - Copyright ORBIFLY December 2007 - Disclaimer

ORBIFLY MET'MAP TEAM :

Programming & Development : Alexandra Zaïnal
Concept & Development : Baudouin d'Aumeries
Co-Development & Prog : Marc-Olivier Méhu
Technical & hardware support : Manuel Goepfert

Contact : metmap@orbifly.com




SOURCES & CREDITS :

   NOAA